Lee-on-the-Solent, United Kingdom
Current Conditions -  °F | °C
As of 2:50 PM on Wednesday 26 Nov 2014 (Local Time) from EGHI Reporting Station
Haze Haze  
Wind Chill: 46°   Ceiling: 500
Heat Index: 48°   Visibility: 3mi
Dew Point: 46°   Wind: 5mph
Humidity: 93%   Direction: 30°NNE
Pressure: 29.8"   Gusts: NA
Location:  50.8°N, 1.2°W
Report Text: EGHI 261450Z 03004KT 360V060 5000 BR BKN005 09/08 Q1009
Loading
Personal Weather Stations






























Interactive Weather Map New forecast layout! Learn more

10-Day Weather Forecast

Advertisements
Track Severe Weather on mobile